CheckWX is a tool to help pilots better visualize weather data.  It is not intended as a substitute for an official pre-flight weather briefing.

05:05:58 UTC

KSKA METAR
Fairchild AFB Airport
Spokane, Washington, USA
Current

1 hour ago

KSKA 230358Z AUTO 19005KT 10SM CLR 20/08 A2998 RMK AO2 SLP146 T02010078 $
Observed
Aug-23 @ 03:58 UTC
Wind
  • 190° at 5 KTS
Visibility
10 SM
Flight Rules
VFR
Cloud Levels
  • Clear skies
Temperature
20°C / 68°F
Dewpoint
C / 46°F
Humidity
46%
Altimeter
29.98" Hg
Pressure
1015.22 hPa
Previous

2 hours ago

KSKA 230258Z AUTO 21006KT 10SM CLR 22/09 A2996 RMK AO2 SLP139 60000 T02190091 53007 $
Observed
Aug-23 @ 02:58 UTC
Wind
  • 210° at 6 KTS
Visibility
10 SM
Flight Rules
VFR
Cloud Levels
  • Clear skies
Temperature
22°C / 72°F
Dewpoint
C / 48°F
Humidity
44%
Altimeter
29.96" Hg
Pressure
1014.52 hPa
Previous

3 hours ago

KSKA 230158Z AUTO 18004KT 10SM CLR 25/09 A2995 RMK AO2 SLP132 T02460085 $
Observed
Aug-23 @ 01:58 UTC
Wind
  • 180° at 4 KTS
Visibility
10 SM
Flight Rules
VFR
Cloud Levels
  • Clear skies
Temperature
25°C / 77°F
Dewpoint
C / 48°F
Humidity
36%
Altimeter
29.95" Hg
Pressure
1014.22 hPa